LIMW/AOT METAR and TAF weather

Enter ICAO airport designator
Station Type Date Time Source
LIMW METAR 2021/09/27 07:50 UTC NOAA

LIMW 270750Z AUTO VRB01KT 9999 NCD 13/10 Q1021


Station Type Date Time Source
LIMW Decoded METAR 2021/09/27 07:50 UTC NOAA

Station name not available
Sep 27, 2021 - 03:50 AM EDT / 2021.09.27 0750 UTC
Wind: Variable at 1 MPH (1 KT):0
Visibility: greater than 7 mile(s):0
Temperature: 55 F (13 C)
Dew Point: 50 F (10 C)
Relative Humidity: 81%
Pressure (altimeter): 30.15 in. Hg (1021 hPa)
ob: LIMW 270750Z AUTO VRB01KT 9999 NCD 13/10 Q1021
cycle: 8

Station Type Date Time Source
LIMW TAF UTC NOAA

Error!

Example: see airport list